sensor_id;sensor_type;location;lat;lon;timestamp;temperature;humidity
40638;DHT22;26336;44.696;10.622;2023-05-27T00:00:10;21.00;99.90
40638;DHT22;26336;44.696;10.622;2023-05-27T00:03:14;20.90;99.90
40638;DHT22;26336;44.696;10.622;2023-05-27T00:06:18;21.00;99.90
40638;DHT22;26336;44.696;10.622;2023-05-27T00:09:21;21.00;99.90
40638;DHT22;26336;44.696;10.622;2023-05-27T00:12:25;21.00;99.90
40638;DHT22;26336;44.696;10.622;2023-05-27T00:15:29;21.00;99.90
40638;DHT22;26336;44.696;10.622;2023-05-27T00:18:34;21.10;99.90
40638;DHT22;26336;44.696;10.622;2023-05-27T00:21:39;21.00;99.90
40638;DHT22;26336;44.696;10.622;2023-05-27T00:24:42;21.10;99.90
40638;DHT22;26336;44.696;10.622;2023-05-27T00:27:46;21.10;99.90
40638;DHT22;26336;44.696;10.622;2023-05-27T00:30:50;21.00;99.90
40638;DHT22;26336;44.696;10.622;2023-05-27T00:33:54;20.80;99.90
40638;DHT22;26336;44.696;10.622;2023-05-27T00:36:58;20.80;99.90
40638;DHT22;26336;44.696;10.622;2023-05-27T00:40:02;20.80;99.90
40638;DHT22;26336;44.696;10.622;2023-05-27T00:43:06;20.80;99.90
40638;DHT22;26336;44.696;10.622;2023-05-27T00:46:10;20.80;99.90
40638;DHT22;26336;44.696;10.622;2023-05-27T00:49:13;20.80;99.90
40638;DHT22;26336;44.696;10.622;2023-05-27T00:52:17;20.90;99.90
40638;DHT22;26336;44.696;10.622;2023-05-27T00:55:25;20.90;99.90
40638;DHT22;26336;44.696;10.622;2023-05-27T00:58:28;21.00;99.90
40638;DHT22;26336;44.696;10.622;2023-05-27T01:01:33;20.90;99.90
40638;DHT22;26336;44.696;10.622;2023-05-27T01:04:39;21.00;99.90
40638;DHT22;26336;44.696;10.622;2023-05-27T01:11:08;21.00;99.90
40638;DHT22;26336;44.696;10.622;2023-05-27T01:14:14;20.80;99.90
40638;DHT22;26336;44.696;10.622;2023-05-27T01:17:17;20.80;99.90
40638;DHT22;26336;44.696;10.622;2023-05-27T01:20:22;20.80;99.90
40638;DHT22;26336;44.696;10.622;2023-05-27T01:23:26;20.80;99.90
40638;DHT22;26336;44.696;10.622;2023-05-27T01:26:30;20.80;99.90
40638;DHT22;26336;44.696;10.622;2023-05-27T01:29:34;20.90;99.90
40638;DHT22;26336;44.696;10.622;2023-05-27T01:35:45;20.90;99.90
40638;DHT22;26336;44.696;10.622;2023-05-27T01:38:50;20.80;99.90
40638;DHT22;26336;44.696;10.622;2023-05-27T01:41:55;20.80;99.90
40638;DHT22;26336;44.696;10.622;2023-05-27T01:45:00;20.80;99.90
40638;DHT22;26336;44.696;10.622;2023-05-27T01:48:04;20.70;99.90
40638;DHT22;26336;44.696;10.622;2023-05-27T01:51:08;20.60;99.90
40638;DHT22;26336;44.696;10.622;2023-05-27T01:54:12;20.60;99.90
40638;DHT22;26336;44.696;10.622;2023-05-27T01:57:16;20.60;99.90
40638;DHT22;26336;44.696;10.622;2023-05-27T02:00:20;20.60;99.90
40638;DHT22;26336;44.696;10.622;2023-05-27T02:03:23;20.60;99.90
40638;DHT22;26336;44.696;10.622;2023-05-27T02:06:27;20.60;99.90
40638;DHT22;26336;44.696;10.622;2023-05-27T02:09:31;20.50;99.90
40638;DHT22;26336;44.696;10.622;2023-05-27T02:12:35;20.40;99.90
40638;DHT22;26336;44.696;10.622;2023-05-27T02:15:42;20.40;99.90
40638;DHT22;26336;44.696;10.622;2023-05-27T02:18:47;20.30;99.90
40638;DHT22;26336;44.696;10.622;2023-05-27T02:21:53;20.40;99.90
40638;DHT22;26336;44.696;10.622;2023-05-27T02:24:56;20.40;99.90
40638;DHT22;26336;44.696;10.622;2023-05-27T02:28:00;20.30;99.90
40638;DHT22;26336;44.696;10.622;2023-05-27T02:31:06;20.20;99.90
40638;DHT22;26336;44.696;10.622;2023-05-27T02:34:10;20.20;99.90
40638;DHT22;26336;44.696;10.622;2023-05-27T02:37:14;20.20;99.90
40638;DHT22;26336;44.696;10.622;2023-05-27T02:40:24;20.20;99.90
40638;DHT22;26336;44.696;10.622;2023-05-27T02:43:28;20.10;99.90
40638;DHT22;26336;44.696;10.622;2023-05-27T02:46:32;20.10;99.90
40638;DHT22;26336;44.696;10.622;2023-05-27T02:49:35;19.90;99.90
40638;DHT22;26336;44.696;10.622;2023-05-27T02:52:39;19.90;99.90
40638;DHT22;26336;44.696;10.622;2023-05-27T02:55:44;20.00;99.90
40638;DHT22;26336;44.696;10.622;2023-05-27T02:58:48;20.00;99.90
40638;DHT22;26336;44.696;10.622;2023-05-27T03:01:51;20.00;99.90
40638;DHT22;26336;44.696;10.622;2023-05-27T03:04:54;20.10;99.90
40638;DHT22;26336;44.696;10.622;2023-05-27T03:07:58;20.10;99.90
40638;DHT22;26336;44.696;10.622;2023-05-27T03:11:02;20.10;99.90
40638;DHT22;26336;44.696;10.622;2023-05-27T03:14:07;20.20;99.90
40638;DHT22;26336;44.696;10.622;2023-05-27T03:17:11;20.20;99.90
40638;DHT22;26336;44.696;10.622;2023-05-27T03:20:14;20.20;99.90
40638;DHT22;26336;44.696;10.622;2023-05-27T03:23:20;20.30;99.90
40638;DHT22;26336;44.696;10.622;2023-05-27T03:26:25;20.30;99.90
40638;DHT22;26336;44.696;10.622;2023-05-27T03:29:30;20.30;99.90
40638;DHT22;26336;44.696;10.622;2023-05-27T03:32:34;20.30;99.90
40638;DHT22;26336;44.696;10.622;2023-05-27T03:35:38;20.20;99.90
40638;DHT22;26336;44.696;10.622;2023-05-27T03:38:42;20.30;99.90
40638;DHT22;26336;44.696;10.622;2023-05-27T03:41:46;20.20;99.90
40638;DHT22;26336;44.696;10.622;2023-05-27T03:44:50;20.10;99.90
40638;DHT22;26336;44.696;10.622;2023-05-27T03:47:54;20.00;99.90
40638;DHT22;26336;44.696;10.622;2023-05-27T03:50:58;20.00;99.90
40638;DHT22;26336;44.696;10.622;2023-05-27T03:54:02;19.80;99.90
40638;DHT22;26336;44.696;10.622;2023-05-27T03:57:07;19.70;99.90
40638;DHT22;26336;44.696;10.622;2023-05-27T04:00:11;19.80;99.90
40638;DHT22;26336;44.696;10.622;2023-05-27T04:03:25;19.80;99.90
40638;DHT22;26336;44.696;10.622;2023-05-27T04:06:30;19.70;99.90
40638;DHT22;26336;44.696;10.622;2023-05-27T04:09:34;19.50;99.90
40638;DHT22;26336;44.696;10.622;2023-05-27T04:12:39;19.30;99.90
40638;DHT22;26336;44.696;10.622;2023-05-27T04:15:44;19.10;99.90
40638;DHT22;26336;44.696;10.622;2023-05-27T04:18:48;18.90;99.90
40638;DHT22;26336;44.696;10.622;2023-05-27T04:21:55;18.80;99.90
40638;DHT22;26336;44.696;10.622;2023-05-27T04:25:00;18.80;99.90
40638;DHT22;26336;44.696;10.622;2023-05-27T04:28:05;18.90;99.90
40638;DHT22;26336;44.696;10.622;2023-05-27T04:31:13;19.00;99.90
40638;DHT22;26336;44.696;10.622;2023-05-27T04:34:22;19.10;99.90
40638;DHT22;26336;44.696;10.622;2023-05-27T04:37:25;19.10;99.90
40638;DHT22;26336;44.696;10.622;2023-05-27T04:40:31;19.30;99.90
40638;DHT22;26336;44.696;10.622;2023-05-27T04:44:05;19.30;99.90
40638;DHT22;26336;44.696;10.622;2023-05-27T04:47:15;19.20;99.90
40638;DHT22;26336;44.696;10.622;2023-05-27T04:50:18;19.10;99.90
40638;DHT22;26336;44.696;10.622;2023-05-27T04:53:23;19.10;99.90
40638;DHT22;26336;44.696;10.622;2023-05-27T04:56:27;19.00;99.90
40638;DHT22;26336;44.696;10.622;2023-05-27T04:59:32;18.80;99.90
40638;DHT22;26336;44.696;10.622;2023-05-27T05:02:51;18.80;99.90
40638;DHT22;26336;44.696;10.622;2023-05-27T05:06:04;18.70;99.90
40638;DHT22;26336;44.696;10.622;2023-05-27T05:09:09;18.70;99.90
40638;DHT22;26336;44.696;10.622;2023-05-27T05:12:14;18.60;99.90
40638;DHT22;26336;44.696;10.622;2023-05-27T05:15:22;18.50;99.90
40638;DHT22;26336;44.696;10.622;2023-05-27T05:18:29;18.40;99.90
40638;DHT22;26336;44.696;10.622;2023-05-27T05:21:33;18.40;99.90
40638;DHT22;26336;44.696;10.622;2023-05-27T05:24:37;18.30;99.90
40638;DHT22;26336;44.696;10.622;2023-05-27T05:27:41;18.30;99.90
40638;DHT22;26336;44.696;10.622;2023-05-27T05:30:45;18.40;99.90
40638;DHT22;26336;44.696;10.622;2023-05-27T05:33:53;18.40;99.90
40638;DHT22;26336;44.696;10.622;2023-05-27T05:36:57;18.40;99.90
40638;DHT22;26336;44.696;10.622;2023-05-27T05:40:02;18.40;99.90
40638;DHT22;26336;44.696;10.622;2023-05-27T05:43:08;18.50;99.90
40638;DHT22;26336;44.696;10.622;2023-05-27T05:46:12;18.60;99.90
40638;DHT22;26336;44.696;10.622;2023-05-27T05:49:17;18.60;99.90
40638;DHT22;26336;44.696;10.622;2023-05-27T05:52:22;18.50;99.90
40638;DHT22;26336;44.696;10.622;2023-05-27T05:55:26;18.50;99.90
40638;DHT22;26336;44.696;10.622;2023-05-27T05:58:30;18.50;99.90
40638;DHT22;26336;44.696;10.622;2023-05-27T06:01:34;18.40;99.90
40638;DHT22;26336;44.696;10.622;2023-05-27T06:04:38;18.50;99.90
40638;DHT22;26336;44.696;10.622;2023-05-27T06:07:42;18.50;99.90
40638;DHT22;26336;44.696;10.622;2023-05-27T06:10:47;18.50;99.90
40638;DHT22;26336;44.696;10.622;2023-05-27T06:13:51;18.50;99.90
40638;DHT22;26336;44.696;10.622;2023-05-27T06:16:56;18.50;99.90
40638;DHT22;26336;44.696;10.622;2023-05-27T06:19:59;18.60;99.90
40638;DHT22;26336;44.696;10.622;2023-05-27T06:23:03;18.70;99.90
40638;DHT22;26336;44.696;10.622;2023-05-27T06:26:19;18.80;99.90
40638;DHT22;26336;44.696;10.622;2023-05-27T06:29:26;18.90;99.90
40638;DHT22;26336;44.696;10.622;2023-05-27T06:32:30;18.90;99.90
40638;DHT22;26336;44.696;10.622;2023-05-27T06:35:34;19.00;99.90
40638;DHT22;26336;44.696;10.622;2023-05-27T06:38:39;19.00;99.90
40638;DHT22;26336;44.696;10.622;2023-05-27T06:41:43;19.00;99.90
40638;DHT22;26336;44.696;10.622;2023-05-27T06:45:05;19.00;99.90
40638;DHT22;26336;44.696;10.622;2023-05-27T06:48:09;18.90;99.90
40638;DHT22;26336;44.696;10.622;2023-05-27T06:51:14;18.80;99.90
40638;DHT22;26336;44.696;10.622;2023-05-27T06:54:17;18.90;99.90
40638;DHT22;26336;44.696;10.622;2023-05-27T06:57:22;18.90;99.90
40638;DHT22;26336;44.696;10.622;2023-05-27T07:00:34;18.80;99.90
40638;DHT22;26336;44.696;10.622;2023-05-27T07:03:55;18.70;99.90
40638;DHT22;26336;44.696;10.622;2023-05-27T07:07:08;18.90;99.90
40638;DHT22;26336;44.696;10.622;2023-05-27T07:10:12;18.90;99.90
40638;DHT22;26336;44.696;10.622;2023-05-27T07:13:15;18.90;99.90
40638;DHT22;26336;44.696;10.622;2023-05-27T07:16:26;19.00;99.90
40638;DHT22;26336;44.696;10.622;2023-05-27T07:19:30;18.90;99.90
40638;DHT22;26336;44.696;10.622;2023-05-27T07:22:38;19.00;99.90
40638;DHT22;26336;44.696;10.622;2023-05-27T07:25:43;18.90;99.90
40638;DHT22;26336;44.696;10.622;2023-05-27T07:28:49;18.90;99.90
40638;DHT22;26336;44.696;10.622;2023-05-27T07:32:21;19.00;99.90
40638;DHT22;26336;44.696;10.622;2023-05-27T07:35:26;19.00;99.90
40638;DHT22;26336;44.696;10.622;2023-05-27T07:38:30;18.90;99.90
40638;DHT22;26336;44.696;10.622;2023-05-27T07:41:34;19.00;99.90
40638;DHT22;26336;44.696;10.622;2023-05-27T07:44:39;19.00;99.90
40638;DHT22;26336;44.696;10.622;2023-05-27T07:47:43;19.00;99.90
40638;DHT22;26336;44.696;10.622;2023-05-27T07:50:47;18.90;99.90
40638;DHT22;26336;44.696;10.622;2023-05-27T07:53:56;19.00;99.90
40638;DHT22;26336;44.696;10.622;2023-05-27T07:57:03;19.10;99.90
40638;DHT22;26336;44.696;10.622;2023-05-27T08:00:10;19.20;99.90
40638;DHT22;26336;44.696;10.622;2023-05-27T08:03:32;19.20;99.90
40638;DHT22;26336;44.696;10.622;2023-05-27T08:06:51;19.30;99.90
40638;DHT22;26336;44.696;10.622;2023-05-27T08:10:07;19.30;99.90
40638;DHT22;26336;44.696;10.622;2023-05-27T08:13:34;19.40;99.90
40638;DHT22;26336;44.696;10.622;2023-05-27T08:16:51;19.50;99.90
40638;DHT22;26336;44.696;10.622;2023-05-27T08:20:04;19.50;99.90
40638;DHT22;26336;44.696;10.622;2023-05-27T08:23:22;19.60;99.90
40638;DHT22;26336;44.696;10.622;2023-05-27T08:26:31;19.60;99.90
40638;DHT22;26336;44.696;10.622;2023-05-27T08:29:55;19.60;99.90
40638;DHT22;26336;44.696;10.622;2023-05-27T08:33:14;19.60;99.90
40638;DHT22;26336;44.696;10.622;2023-05-27T08:36:18;19.70;99.90
40638;DHT22;26336;44.696;10.622;2023-05-27T08:39:24;19.80;99.90
40638;DHT22;26336;44.696;10.622;2023-05-27T08:42:39;19.80;99.90
40638;DHT22;26336;44.696;10.622;2023-05-27T08:45:44;19.80;99.90
40638;DHT22;26336;44.696;10.622;2023-05-27T08:48:49;19.90;99.90
40638;DHT22;26336;44.696;10.622;2023-05-27T08:51:53;20.00;99.90
40638;DHT22;26336;44.696;10.622;2023-05-27T08:54:58;20.10;99.90
40638;DHT22;26336;44.696;10.622;2023-05-27T08:58:02;20.20;99.90
40638;DHT22;26336;44.696;10.622;2023-05-27T09:01:10;20.40;99.90
40638;DHT22;26336;44.696;10.622;2023-05-27T09:04:23;20.50;99.90
40638;DHT22;26336;44.696;10.622;2023-05-27T09:07:26;20.60;99.90
40638;DHT22;26336;44.696;10.622;2023-05-27T09:10:40;20.80;99.90
40638;DHT22;26336;44.696;10.622;2023-05-27T09:13:44;20.90;99.90
40638;DHT22;26336;44.696;10.622;2023-05-27T09:16:49;21.00;99.90
40638;DHT22;26336;44.696;10.622;2023-05-27T09:19:54;21.00;99.90
40638;DHT22;26336;44.696;10.622;2023-05-27T09:22:59;21.10;99.90
40638;DHT22;26336;44.696;10.622;2023-05-27T09:26:07;21.20;99.90
40638;DHT22;26336;44.696;10.622;2023-05-27T09:29:11;21.30;99.90
40638;DHT22;26336;44.696;10.622;2023-05-27T09:32:22;21.40;99.90
40638;DHT22;26336;44.696;10.622;2023-05-27T09:35:26;21.50;99.90
40638;DHT22;26336;44.696;10.622;2023-05-27T09:38:31;21.60;99.90
40638;DHT22;26336;44.696;10.622;2023-05-27T09:41:35;21.70;99.90
40638;DHT22;26336;44.696;10.622;2023-05-27T09:44:39;21.70;99.90
40638;DHT22;26336;44.696;10.622;2023-05-27T09:47:48;21.70;99.90
40638;DHT22;26336;44.696;10.622;2023-05-27T09:50:52;21.80;99.90
40638;DHT22;26336;44.696;10.622;2023-05-27T09:53:57;21.90;99.90
40638;DHT22;26336;44.696;10.622;2023-05-27T09:57:01;22.00;99.90
40638;DHT22;26336;44.696;10.622;2023-05-27T10:00:06;22.10;99.90
40638;DHT22;26336;44.696;10.622;2023-05-27T10:03:20;22.10;99.90
40638;DHT22;26336;44.696;10.622;2023-05-27T10:06:25;22.10;99.90
40638;DHT22;26336;44.696;10.622;2023-05-27T10:09:29;22.10;99.90
40638;DHT22;26336;44.696;10.622;2023-05-27T10:12:33;22.20;99.90
40638;DHT22;26336;44.696;10.622;2023-05-27T10:15:36;22.30;99.90
40638;DHT22;26336;44.696;10.622;2023-05-27T10:18:41;22.40;99.90
40638;DHT22;26336;44.696;10.622;2023-05-27T10:21:45;22.40;99.90
40638;DHT22;26336;44.696;10.622;2023-05-27T10:24:49;22.40;99.90
40638;DHT22;26336;44.696;10.622;2023-05-27T10:27:56;22.50;99.90
40638;DHT22;26336;44.696;10.622;2023-05-27T10:31:13;22.50;99.90
40638;DHT22;26336;44.696;10.622;2023-05-27T10:34:17;22.70;99.90
40638;DHT22;26336;44.696;10.622;2023-05-27T10:37:22;22.70;99.90
40638;DHT22;26336;44.696;10.622;2023-05-27T10:40:26;22.70;99.90
40638;DHT22;26336;44.696;10.622;2023-05-27T10:43:32;22.70;99.90
40638;DHT22;26336;44.696;10.622;2023-05-27T10:46:40;22.80;99.90
40638;DHT22;26336;44.696;10.622;2023-05-27T10:49:45;23.00;99.90
40638;DHT22;26336;44.696;10.622;2023-05-27T10:52:54;22.90;99.90
40638;DHT22;26336;44.696;10.622;2023-05-27T10:55:58;23.10;99.90
40638;DHT22;26336;44.696;10.622;2023-05-27T10:59:02;23.10;99.90
40638;DHT22;26336;44.696;10.622;2023-05-27T11:02:07;23.20;99.90
40638;DHT22;26336;44.696;10.622;2023-05-27T11:05:13;23.30;99.90
40638;DHT22;26336;44.696;10.622;2023-05-27T11:08:17;23.30;99.90
40638;DHT22;26336;44.696;10.622;2023-05-27T11:11:20;23.30;99.90
40638;DHT22;26336;44.696;10.622;2023-05-27T11:14:24;23.40;99.90
40638;DHT22;26336;44.696;10.622;2023-05-27T11:17:28;23.40;99.90
40638;DHT22;26336;44.696;10.622;2023-05-27T11:20:35;23.40;99.90
40638;DHT22;26336;44.696;10.622;2023-05-27T11:23:41;23.50;99.90
40638;DHT22;26336;44.696;10.622;2023-05-27T11:26:46;23.50;99.90
40638;DHT22;26336;44.696;10.622;2023-05-27T11:29:51;23.60;99.90
40638;DHT22;26336;44.696;10.622;2023-05-27T11:33:01;23.70;99.90
40638;DHT22;26336;44.696;10.622;2023-05-27T11:36:05;23.70;99.90
40638;DHT22;26336;44.696;10.622;2023-05-27T11:39:12;23.80;99.90
40638;DHT22;26336;44.696;10.622;2023-05-27T11:42:20;23.80;99.90
40638;DHT22;26336;44.696;10.622;2023-05-27T11:45:25;23.80;99.90
40638;DHT22;26336;44.696;10.622;2023-05-27T11:48:30;23.90;99.90
40638;DHT22;26336;44.696;10.622;2023-05-27T11:51:34;23.90;99.90
40638;DHT22;26336;44.696;10.622;2023-05-27T11:54:39;23.90;99.90
40638;DHT22;26336;44.696;10.622;2023-05-27T11:57:44;24.00;99.90
40638;DHT22;26336;44.696;10.622;2023-05-27T12:00:47;24.10;99.90
40638;DHT22;26336;44.696;10.622;2023-05-27T12:03:51;24.00;99.90
40638;DHT22;26336;44.696;10.622;2023-05-27T12:06:55;24.00;99.70
40638;DHT22;26336;44.696;10.622;2023-05-27T12:10:02;24.00;99.90
40638;DHT22;26336;44.696;10.622;2023-05-27T12:13:05;24.10;99.90
40638;DHT22;26336;44.696;10.622;2023-05-27T12:16:10;24.10;99.90
40638;DHT22;26336;44.696;10.622;2023-05-27T12:19:14;24.10;99.90
40638;DHT22;26336;44.696;10.622;2023-05-27T12:22:18;24.20;99.90
40638;DHT22;26336;44.696;10.622;2023-05-27T12:25:22;24.20;99.20
40638;DHT22;26336;44.696;10.622;2023-05-27T12:28:26;24.20;98.90
40638;DHT22;26336;44.696;10.622;2023-05-27T12:31:31;24.30;99.00
40638;DHT22;26336;44.696;10.622;2023-05-27T12:34:35;24.30;99.30
40638;DHT22;26336;44.696;10.622;2023-05-27T12:37:39;24.30;99.90
40638;DHT22;26336;44.696;10.622;2023-05-27T12:40:43;24.30;99.50
40638;DHT22;26336;44.696;10.622;2023-05-27T12:43:47;24.30;98.30
40638;DHT22;26336;44.696;10.622;2023-05-27T12:46:50;24.30;98.10
40638;DHT22;26336;44.696;10.622;2023-05-27T12:49:56;24.30;97.60
40638;DHT22;26336;44.696;10.622;2023-05-27T12:53:01;24.30;98.20
40638;DHT22;26336;44.696;10.622;2023-05-27T12:56:05;24.40;97.70
40638;DHT22;26336;44.696;10.622;2023-05-27T12:59:09;24.50;97.30
40638;DHT22;26336;44.696;10.622;2023-05-27T13:02:13;24.50;97.00
40638;DHT22;26336;44.696;10.622;2023-05-27T13:05:17;24.60;97.00
40638;DHT22;26336;44.696;10.622;2023-05-27T13:08:21;24.60;96.50
40638;DHT22;26336;44.696;10.622;2023-05-27T13:11:24;24.50;95.30
40638;DHT22;26336;44.696;10.622;2023-05-27T13:14:29;24.50;95.30
40638;DHT22;26336;44.696;10.622;2023-05-27T13:17:33;24.50;95.00
40638;DHT22;26336;44.696;10.622;2023-05-27T13:20:37;24.50;95.30
40638;DHT22;26336;44.696;10.622;2023-05-27T13:23:41;24.50;94.30
40638;DHT22;26336;44.696;10.622;2023-05-27T13:26:45;24.60;94.10
40638;DHT22;26336;44.696;10.622;2023-05-27T13:29:49;24.60;94.90
40638;DHT22;26336;44.696;10.622;2023-05-27T13:32:53;24.70;94.50
40638;DHT22;26336;44.696;10.622;2023-05-27T13:35:58;24.70;94.60
40638;DHT22;26336;44.696;10.622;2023-05-27T13:39:02;24.70;95.40
40638;DHT22;26336;44.696;10.622;2023-05-27T13:42:05;24.70;96.30
40638;DHT22;26336;44.696;10.622;2023-05-27T13:45:10;24.60;94.70
40638;DHT22;26336;44.696;10.622;2023-05-27T13:48:13;24.70;94.90
40638;DHT22;26336;44.696;10.622;2023-05-27T13:51:18;24.60;95.10
40638;DHT22;26336;44.696;10.622;2023-05-27T13:54:21;24.70;95.20
40638;DHT22;26336;44.696;10.622;2023-05-27T13:57:25;24.70;95.20
40638;DHT22;26336;44.696;10.622;2023-05-27T14:00:29;24.80;94.70
40638;DHT22;26336;44.696;10.622;2023-05-27T14:03:34;24.80;94.40
40638;DHT22;26336;44.696;10.622;2023-05-27T14:06:38;24.80;94.50
40638;DHT22;26336;44.696;10.622;2023-05-27T14:09:42;24.80;94.10
40638;DHT22;26336;44.696;10.622;2023-05-27T14:12:46;24.80;94.80
40638;DHT22;26336;44.696;10.622;2023-05-27T14:15:50;24.80;94.70
40638;DHT22;26336;44.696;10.622;2023-05-27T14:18:54;24.90;94.90
40638;DHT22;26336;44.696;10.622;2023-05-27T14:21:59;24.90;95.30
40638;DHT22;26336;44.696;10.622;2023-05-27T14:25:03;24.90;94.30
40638;DHT22;26336;44.696;10.622;2023-05-27T14:28:07;24.90;95.10
40638;DHT22;26336;44.696;10.622;2023-05-27T14:31:11;24.90;94.50
40638;DHT22;26336;44.696;10.622;2023-05-27T14:34:15;24.90;94.90
40638;DHT22;26336;44.696;10.622;2023-05-27T14:37:19;25.00;95.90
40638;DHT22;26336;44.696;10.622;2023-05-27T14:40:23;25.00;96.20
40638;DHT22;26336;44.696;10.622;2023-05-27T14:43:27;25.00;96.10
40638;DHT22;26336;44.696;10.622;2023-05-27T14:46:30;25.00;96.50
40638;DHT22;26336;44.696;10.622;2023-05-27T14:49:34;25.00;95.40
40638;DHT22;26336;44.696;10.622;2023-05-27T14:52:37;25.00;95.30
40638;DHT22;26336;44.696;10.622;2023-05-27T14:55:41;25.00;95.30
40638;DHT22;26336;44.696;10.622;2023-05-27T14:58:45;24.90;96.00
40638;DHT22;26336;44.696;10.622;2023-05-27T15:01:50;24.90;96.60
40638;DHT22;26336;44.696;10.622;2023-05-27T15:04:54;25.00;95.60
40638;DHT22;26336;44.696;10.622;2023-05-27T15:07:57;25.00;95.30
40638;DHT22;26336;44.696;10.622;2023-05-27T15:11:02;25.00;96.20
40638;DHT22;26336;44.696;10.622;2023-05-27T15:14:06;25.00;96.20
40638;DHT22;26336;44.696;10.622;2023-05-27T15:17:09;25.00;95.80
40638;DHT22;26336;44.696;10.622;2023-05-27T15:20:15;25.00;95.60
40638;DHT22;26336;44.696;10.622;2023-05-27T15:23:18;25.00;95.60
40638;DHT22;26336;44.696;10.622;2023-05-27T15:26:22;25.00;96.10
40638;DHT22;26336;44.696;10.622;2023-05-27T15:29:26;25.00;96.00
40638;DHT22;26336;44.696;10.622;2023-05-27T15:32:30;25.00;96.40
40638;DHT22;26336;44.696;10.622;2023-05-27T15:35:34;25.00;96.50
40638;DHT22;26336;44.696;10.622;2023-05-27T15:38:38;25.00;95.60
40638;DHT22;26336;44.696;10.622;2023-05-27T15:41:42;24.90;94.90
40638;DHT22;26336;44.696;10.622;2023-05-27T15:44:45;25.00;94.90
40638;DHT22;26336;44.696;10.622;2023-05-27T15:47:50;25.00;94.80
40638;DHT22;26336;44.696;10.622;2023-05-27T15:50:57;25.00;95.30
40638;DHT22;26336;44.696;10.622;2023-05-27T15:54:00;25.00;94.80
40638;DHT22;26336;44.696;10.622;2023-05-27T15:57:05;25.00;95.10
40638;DHT22;26336;44.696;10.622;2023-05-27T16:00:09;25.00;95.50
40638;DHT22;26336;44.696;10.622;2023-05-27T16:03:16;25.00;95.80
40638;DHT22;26336;44.696;10.622;2023-05-27T16:06:21;25.00;96.50
40638;DHT22;26336;44.696;10.622;2023-05-27T16:09:25;24.90;96.00
40638;DHT22;26336;44.696;10.622;2023-05-27T16:12:29;25.00;95.50
40638;DHT22;26336;44.696;10.622;2023-05-27T16:15:33;25.00;95.70
40638;DHT22;26336;44.696;10.622;2023-05-27T16:18:36;25.00;95.50
40638;DHT22;26336;44.696;10.622;2023-05-27T16:21:40;25.00;95.30
40638;DHT22;26336;44.696;10.622;2023-05-27T16:24:45;24.90;95.40
40638;DHT22;26336;44.696;10.622;2023-05-27T16:27:49;24.90;94.80
40638;DHT22;26336;44.696;10.622;2023-05-27T16:30:53;24.90;94.90
40638;DHT22;26336;44.696;10.622;2023-05-27T16:33:57;24.90;94.70
40638;DHT22;26336;44.696;10.622;2023-05-27T16:37:01;24.90;94.20
40638;DHT22;26336;44.696;10.622;2023-05-27T16:40:05;24.80;94.30
40638;DHT22;26336;44.696;10.622;2023-05-27T16:43:11;24.80;93.90
40638;DHT22;26336;44.696;10.622;2023-05-27T16:46:15;24.80;94.20
40638;DHT22;26336;44.696;10.622;2023-05-27T16:49:19;24.80;94.70
40638;DHT22;26336;44.696;10.622;2023-05-27T16:52:23;24.70;94.60
40638;DHT22;26336;44.696;10.622;2023-05-27T16:55:26;24.70;94.40
40638;DHT22;26336;44.696;10.622;2023-05-27T16:58:29;24.70;94.40
40638;DHT22;26336;44.696;10.622;2023-05-27T17:01:33;24.60;94.80
40638;DHT22;26336;44.696;10.622;2023-05-27T17:04:36;24.60;94.70
40638;DHT22;26336;44.696;10.622;2023-05-27T17:07:40;24.50;94.80
40638;DHT22;26336;44.696;10.622;2023-05-27T17:10:44;24.50;94.80
40638;DHT22;26336;44.696;10.622;2023-05-27T17:13:48;24.40;95.30
40638;DHT22;26336;44.696;10.622;2023-05-27T17:16:51;24.40;95.20
40638;DHT22;26336;44.696;10.622;2023-05-27T17:19:54;24.40;95.40
40638;DHT22;26336;44.696;10.622;2023-05-27T17:22:58;24.30;95.50
40638;DHT22;26336;44.696;10.622;2023-05-27T17:26:02;24.30;95.80
40638;DHT22;26336;44.696;10.622;2023-05-27T17:29:05;24.30;96.10
40638;DHT22;26336;44.696;10.622;2023-05-27T17:32:08;24.30;96.20
40638;DHT22;26336;44.696;10.622;2023-05-27T17:35:12;24.20;96.40
40638;DHT22;26336;44.696;10.622;2023-05-27T17:38:16;24.20;96.30
40638;DHT22;26336;44.696;10.622;2023-05-27T17:41:20;24.10;96.60
40638;DHT22;26336;44.696;10.622;2023-05-27T17:44:23;24.10;96.60
40638;DHT22;26336;44.696;10.622;2023-05-27T17:47:27;24.10;96.50
40638;DHT22;26336;44.696;10.622;2023-05-27T17:50:31;24.00;96.80
40638;DHT22;26336;44.696;10.622;2023-05-27T17:53:34;24.00;96.80
40638;DHT22;26336;44.696;10.622;2023-05-27T17:56:38;23.90;96.80
40638;DHT22;26336;44.696;10.622;2023-05-27T17:59:42;23.90;97.00
40638;DHT22;26336;44.696;10.622;2023-05-27T18:02:46;23.80;97.20
40638;DHT22;26336;44.696;10.622;2023-05-27T18:05:50;23.80;97.10
40638;DHT22;26336;44.696;10.622;2023-05-27T18:08:53;23.70;97.00
40638;DHT22;26336;44.696;10.622;2023-05-27T18:11:57;23.70;97.30
40638;DHT22;26336;44.696;10.622;2023-05-27T18:15:00;23.70;97.40
40638;DHT22;26336;44.696;10.622;2023-05-27T18:18:05;23.60;97.00
40638;DHT22;26336;44.696;10.622;2023-05-27T18:21:09;23.60;97.20
40638;DHT22;26336;44.696;10.622;2023-05-27T18:24:13;23.60;97.30
40638;DHT22;26336;44.696;10.622;2023-05-27T18:27:16;23.50;97.00
40638;DHT22;26336;44.696;10.622;2023-05-27T18:30:21;23.50;97.00
40638;DHT22;26336;44.696;10.622;2023-05-27T18:33:27;23.50;97.10
40638;DHT22;26336;44.696;10.622;2023-05-27T18:36:31;23.40;97.20
40638;DHT22;26336;44.696;10.622;2023-05-27T18:39:35;23.40;97.00
40638;DHT22;26336;44.696;10.622;2023-05-27T18:42:38;23.30;97.20
40638;DHT22;26336;44.696;10.622;2023-05-27T18:48:52;23.30;97.50
40638;DHT22;26336;44.696;10.622;2023-05-27T18:51:56;23.30;97.40
40638;DHT22;26336;44.696;10.622;2023-05-27T18:55:00;23.20;97.50
40638;DHT22;26336;44.696;10.622;2023-05-27T18:58:03;23.20;97.50
40638;DHT22;26336;44.696;10.622;2023-05-27T19:01:07;23.20;97.60
40638;DHT22;26336;44.696;10.622;2023-05-27T19:04:10;23.20;97.80
40638;DHT22;26336;44.696;10.622;2023-05-27T19:07:14;23.00;97.90
40638;DHT22;26336;44.696;10.622;2023-05-27T19:10:18;23.00;98.20
40638;DHT22;26336;44.696;10.622;2023-05-27T19:13:22;23.00;98.10
40638;DHT22;26336;44.696;10.622;2023-05-27T19:16:26;22.90;98.10
40638;DHT22;26336;44.696;10.622;2023-05-27T19:19:30;22.90;98.20